Time;durP1;ratioP1;P1;durP2;ratioP2;P2;SDS_P1;SDS_P2;PMS_P1;PMS_P2;Temp;Humidity;BMP_temperature;BMP_pressure;BME280_temperature;BME280_humidity;BME280_pressure;Samples;Min_cycle;Max_cycle;Signal;HPM_P1;HPM_P2
2023/04/24 00:00:25;;;;;;;0.60;0.50;;;;;18.70;98960.00;;;;2061812;28;20219;-66
2023/04/24 00:01:25;;;;;;;0.70;0.50;;;;;18.70;98962.00;;;;2061619;28;20685;-66
2023/04/24 00:02:26;;;;;;;1.13;0.60;;;;;18.70;98965.00;;;;2057149;28;20214;-66
2023/04/24 00:03:27;;;;;;;0.70;0.50;;;;;18.70;98965.00;;;;2058746;28;20190;-66
2023/04/24 00:04:28;;;;;;;0.90;0.50;;;;;18.70;98967.00;;;;2065487;28;20190;-66
2023/04/24 00:05:28;;;;;;;0.70;0.57;;;;;18.70;98955.00;;;;2069141;28;20214;-66
2023/04/24 00:06:32;;;;;;;1.17;0.67;;;;;18.70;98961.00;;;;2064394;28;20267;-66
2023/04/24 00:07:33;;;;;;;0.85;0.40;;;;;18.70;98951.00;;;;2067078;28;20939;-66
2023/04/24 00:08:37;;;;;;;0.90;0.50;;;;;18.70;98968.00;;;;2064578;28;20270;-66
2023/04/24 00:09:37;;;;;;;0.60;0.50;;;;;18.70;98968.00;;;;2067650;28;20436;-66
2023/04/24 00:10:37;;;;;;;0.60;0.57;;;;;18.70;98955.00;;;;2067584;28;20193;-66
2023/04/24 00:11:38;;;;;;;0.70;0.50;;;;;18.70;98951.00;;;;2064323;28;20191;-66
2023/04/24 00:12:38;;;;;;;0.70;0.60;;;;;18.70;98963.00;;;;2061483;28;20182;-66
2023/04/24 00:13:39;;;;;;;0.90;0.60;;;;;18.70;98954.00;;;;2061689;28;20201;-66
2023/04/24 00:14:40;;;;;;;0.68;0.60;;;;;18.60;98955.00;;;;2068145;28;20185;-66
2023/04/24 00:15:40;;;;;;;0.93;0.60;;;;;18.70;98951.00;;;;2066917;28;20194;-66
2023/04/24 00:16:40;;;;;;;0.70;0.50;;;;;18.70;98954.00;;;;2065026;28;20955;-66
2023/04/24 00:17:41;;;;;;;0.70;0.50;;;;;18.70;98957.00;;;;2069564;28;20676;-66
2023/04/24 00:18:41;;;;;;;0.90;0.50;;;;;18.70;98958.00;;;;2054228;28;20674;-66
2023/04/24 00:19:41;;;;;;;0.70;0.50;;;;;18.70;98932.00;;;;2054557;28;20180;-66
2023/04/24 00:20:43;;;;;;;0.80;0.60;;;;;18.70;98963.00;;;;2062558;28;20224;-66
2023/04/24 00:21:43;;;;;;;0.68;0.45;;;;;18.70;98956.00;;;;2064195;28;20248;-66
2023/04/24 00:22:44;;;;;;;1.00;0.50;;;;;18.70;98961.00;;;;2067464;28;20251;-66
2023/04/24 00:23:44;;;;;;;0.67;0.43;;;;;18.70;98958.00;;;;2070204;28;20190;-66
2023/04/24 00:24:44;;;;;;;0.70;0.47;;;;;18.70;98963.00;;;;2063718;28;20697;-66
2023/04/24 00:25:45;;;;;;;0.90;0.40;;;;;18.70;98967.00;;;;2063302;28;20182;-66
2023/04/24 00:26:45;;;;;;;0.80;0.60;;;;;18.70;98968.00;;;;2062983;28;20283;-66
2023/04/24 00:27:45;;;;;;;0.73;0.50;;;;;18.70;98968.00;;;;2065750;28;20245;-66
2023/04/24 00:28:46;;;;;;;1.00;0.60;;;;;18.70;98959.00;;;;2069890;28;20218;-66
2023/04/24 00:29:46;;;;;;;0.70;0.60;;;;;18.70;98958.00;;;;2065613;28;20244;-66
2023/04/24 00:30:47;;;;;;;0.80;0.50;;;;;18.70;98949.00;;;;2069726;28;20196;-66
2023/04/24 00:31:47;;;;;;;0.70;0.50;;;;;18.70;98959.00;;;;2061633;28;20285;-66
2023/04/24 00:32:47;;;;;;;0.90;0.60;;;;;18.70;98962.00;;;;2047234;28;20196;-66
2023/04/24 00:33:48;;;;;;;0.70;0.60;;;;;18.70;98938.00;;;;2054315;28;20215;-66
2023/04/24 00:34:48;;;;;;;0.80;0.50;;;;;18.70;98959.00;;;;2063136;28;20194;-66
2023/04/24 00:35:48;;;;;;;0.70;0.50;;;;;18.70;98943.00;;;;2068704;28;20209;-66
2023/04/24 00:36:51;;;;;;;0.60;0.40;;;;;18.70;98957.00;;;;2062257;28;20213;-66
2023/04/24 00:37:52;;;;;;;0.75;0.40;;;;;18.70;98955.00;;;;2062788;28;20209;-66
2023/04/24 00:38:53;;;;;;;0.70;0.60;;;;;18.70;98964.00;;;;2062742;28;20193;-66
2023/04/24 00:39:53;;;;;;;1.20;0.60;;;;;18.70;98961.00;;;;2063332;28;20197;-66
2023/04/24 00:40:54;;;;;;;0.80;0.60;;;;;18.70;98975.00;;;;2067066;28;20425;-66
2023/04/24 00:41:55;;;;;;;0.80;0.60;;;;;18.70;98957.00;;;;2057480;28;20179;-66
2023/04/24 00:42:55;;;;;;;0.70;0.50;;;;;18.70;98954.00;;;;2055289;28;20521;-66
2023/04/24 00:43:55;;;;;;;0.70;0.40;;;;;18.70;98959.00;;;;2059700;28;20269;-66
2023/04/24 00:44:56;;;;;;;0.70;0.40;;;;;18.70;98954.00;;;;2054367;28;20272;-66
2023/04/24 00:45:57;;;;;;;0.80;0.43;;;;;18.70;98957.00;;;;2065381;28;20181;-66
2023/04/24 00:46:57;;;;;;;0.70;0.50;;;;;18.70;98952.00;;;;2053785;28;21000;-66
2023/04/24 00:47:57;;;;;;;0.60;0.40;;;;;18.70;98938.00;;;;2054482;28;20234;-66
2023/04/24 00:48:58;;;;;;;0.63;0.40;;;;;18.70;98953.00;;;;2064819;28;20226;-66
2023/04/24 00:50:03;;;;;;;0.70;0.47;;;;;18.70;98950.00;;;;2062321;28;20178;-66
2023/04/24 00:51:04;;;;;;;0.85;0.60;;;;;18.70;98953.00;;;;2062781;28;20194;-66
2023/04/24 00:52:07;;;;;;;0.80;0.60;;;;;18.70;98956.00;;;;2063935;28;20214;-66
2023/04/24 00:53:07;;;;;;;0.60;0.40;;;;;18.70;98956.00;;;;2070800;28;20168;-66
2023/04/24 00:54:08;;;;;;;0.70;0.50;;;;;18.70;98952.00;;;;2064375;28;20187;-66
2023/04/24 00:55:08;;;;;;;0.70;0.43;;;;;18.70;98949.00;;;;2070183;28;20179;-66
2023/04/24 00:56:09;;;;;;;0.90;0.60;;;;;18.70;98954.00;;;;2065197;28;20264;-66
2023/04/24 00:57:09;;;;;;;0.70;0.50;;;;;18.70;98972.00;;;;2055770;28;20172;-66
2023/04/24 00:58:09;;;;;;;0.70;0.50;;;;;18.70;98958.00;;;;2059151;28;20183;-66
2023/04/24 00:59:11;;;;;;;0.80;0.67;;;;;18.70;98941.00;;;;2063465;28;20198;-66
2023/04/24 01:00:12;;;;;;;0.60;0.40;;;;;18.70;98967.00;;;;2061713;28;20611;-66
2023/04/24 01:01:12;;;;;;;1.53;0.50;;;;;18.70;98965.00;;;;2048234;28;20196;-66
2023/04/24 01:02:13;;;;;;;0.80;0.47;;;;;18.70;98971.00;;;;2050638;28;20179;-66
2023/04/24 01:03:13;;;;;;;0.63;0.43;;;;;18.70;98972.00;;;;2060946;28;20206;-66
2023/04/24 01:04:15;;;;;;;0.80;0.53;;;;;18.70;98972.00;;;;2062016;28;20405;-66
2023/04/24 01:05:17;;;;;;;0.70;0.40;;;;;18.70;98968.00;;;;2061789;28;20444;-66
2023/04/24 01:06:18;;;;;;;0.60;0.40;;;;;18.70;98970.00;;;;2065155;28;20217;-66
2023/04/24 01:07:20;;;;;;;0.70;0.40;;;;;18.70;98970.00;;;;2056739;28;20194;-66
2023/04/24 01:08:22;;;;;;;0.80;0.60;;;;;18.70;98959.00;;;;2058585;28;20206;-66
2023/04/24 01:09:23;;;;;;;0.80;0.50;;;;;18.70;98968.00;;;;2057245;28;20206;-66
2023/04/24 01:10:23;;;;;;;1.73;0.53;;;;;18.70;98964.00;;;;2059218;28;20189;-66
2023/04/24 01:11:24;;;;;;;1.17;0.60;;;;;18.70;98975.00;;;;2057863;28;20293;-66
2023/04/24 01:12:24;;;;;;;1.10;0.70;;;;;18.70;98970.00;;;;2057788;28;20505;-66
2023/04/24 01:13:25;;;;;;;0.70;0.50;;;;;18.70;98970.00;;;;2064605;28;20193;-66
2023/04/24 01:14:25;;;;;;;0.80;0.50;;;;;18.70;98971.00;;;;2050631;28;20218;-66
2023/04/24 01:15:26;;;;;;;0.80;0.50;;;;;18.70;98977.00;;;;2057885;28;20198;-66
2023/04/24 01:16:26;;;;;;;0.87;0.60;;;;;18.70;98978.00;;;;2064785;28;20187;-66
2023/04/24 01:17:26;;;;;;;0.60;0.40;;;;;18.70;98981.00;;;;2057713;28;20182;-66
2023/04/24 01:18:27;;;;;;;0.70;0.53;;;;;18.70;98976.00;;;;2056902;28;20222;-66
2023/04/24 01:19:27;;;;;;;1.30;0.60;;;;;18.70;98977.00;;;;2052736;28;20234;-66
2023/04/24 01:20:28;;;;;;;1.07;0.50;;;;;18.70;98973.00;;;;2058196;28;21084;-66
2023/04/24 01:21:28;;;;;;;0.80;0.40;;;;;18.70;98975.00;;;;2057910;28;20886;-66
2023/04/24 01:22:29;;;;;;;0.70;0.40;;;;;18.70;98965.00;;;;2057436;28;20190;-66
2023/04/24 01:23:29;;;;;;;0.60;0.40;;;;;18.70;98976.00;;;;2062138;28;20209;-66
2023/04/24 01:24:29;;;;;;;0.80;0.57;;;;;18.70;98968.00;;;;2064009;28;20265;-66
2023/04/24 01:25:30;;;;;;;0.90;0.50;;;;;18.70;98971.00;;;;2063760;28;20192;-66
2023/04/24 01:26:30;;;;;;;0.70;0.60;;;;;18.70;98970.00;;;;2058579;28;20185;-66
2023/04/24 01:27:30;;;;;;;0.70;0.43;;;;;18.70;98969.00;;;;2060316;28;20286;-66
2023/04/24 01:28:31;;;;;;;0.77;0.60;;;;;18.70;98963.00;;;;2057851;28;20185;-66
2023/04/24 01:29:31;;;;;;;0.80;0.60;;;;;18.70;98972.00;;;;2049423;28;20184;-66
2023/04/24 01:30:32;;;;;;;0.67;0.47;;;;;18.70;98973.00;;;;2048760;28;20363;-66
2023/04/24 01:31:32;;;;;;;1.10;0.60;;;;;18.70;98962.00;;;;2059190;28;20178;-66
2023/04/24 01:32:33;;;;;;;0.80;0.60;;;;;18.70;98970.00;;;;2059205;28;20243;-66
2023/04/24 01:33:33;;;;;;;0.70;0.40;;;;;18.60;98971.00;;;;2058751;28;20713;-66
2023/04/24 01:34:34;;;;;;;0.90;0.40;;;;;18.60;98965.00;;;;2070056;28;20320;-66
2023/04/24 01:35:35;;;;;;;0.67;0.40;;;;;18.70;98971.00;;;;2057875;28;20604;-66
2023/04/24 01:36:36;;;;;;;0.70;0.50;;;;;18.70;98964.00;;;;2059143;28;20864;-66
2023/04/24 01:37:39;;;;;;;0.70;0.50;;;;;18.70;98972.00;;;;2056275;28;20211;-66
2023/04/24 01:38:40;;;;;;;0.60;0.40;;;;;18.70;98981.00;;;;2059887;28;20665;-66
2023/04/24 01:39:40;;;;;;;0.90;0.60;;;;;18.60;98957.00;;;;2053898;28;20191;-66
2023/04/24 01:40:40;;;;;;;0.70;0.50;;;;;18.70;98982.00;;;;2049066;28;20187;-66
2023/04/24 01:41:41;;;;;;;0.80;0.50;;;;;18.70;98973.00;;;;2051353;28;20190;-66
2023/04/24 01:42:41;;;;;;;0.80;0.60;;;;;18.60;98968.00;;;;2053959;28;20179;-66
2023/04/24 01:43:41;;;;;;;0.77;0.53;;;;;18.60;98979.00;;;;2067552;28;20275;-66
2023/04/24 01:44:42;;;;;;;0.60;0.40;;;;;18.70;98980.00;;;;2053283;28;20222;-66
2023/04/24 01:45:42;;;;;;;0.70;0.50;;;;;18.70;98979.00;;;;2045535;28;20219;-66
2023/04/24 01:46:42;;;;;;;0.80;0.50;;;;;18.70;98973.00;;;;2053443;28;20210;-66
2023/04/24 01:47:43;;;;;;;1.00;0.60;;;;;18.70;98974.00;;;;2067817;28;20199;-66
2023/04/24 01:48:45;;;;;;;0.70;0.60;;;;;18.70;98975.00;;;;2059215;28;20209;-66
2023/04/24 01:49:45;;;;;;;0.70;0.50;;;;;18.60;98968.00;;;;2053371;28;20213;-66
2023/04/24 01:50:46;;;;;;;0.70;0.50;;;;;18.60;98969.00;;;;2053934;28;20293;-66
2023/04/24 01:51:46;;;;;;;2.03;0.50;;;;;18.60;98970.00;;;;2054035;28;21985;-66
2023/04/24 01:52:46;;;;;;;0.70;0.50;;;;;18.70;98985.00;;;;2067795;28;20189;-66
2023/04/24 01:53:47;;;;;;;0.60;0.40;;;;;18.60;98979.00;;;;2067321;28;20222;-66
2023/04/24 01:54:47;;;;;;;0.70;0.40;;;;;18.60;98973.00;;;;2068525;28;20243;-66
2023/04/24 01:55:47;;;;;;;1.00;0.60;;;;;18.70;98976.00;;;;2057001;28;20250;-66
2023/04/24 01:56:48;;;;;;;1.37;0.40;;;;;18.70;98976.00;;;;2055769;28;20187;-66
2023/04/24 01:57:48;;;;;;;1.00;0.50;;;;;18.60;98975.00;;;;2053269;28;20301;-66
2023/04/24 01:58:50;;;;;;;0.70;0.50;;;;;18.60;98977.00;;;;2051877;28;20210;-66
2023/04/24 01:59:51;;;;;;;0.70;0.47;;;;;18.70;98975.00;;;;2060619;28;20198;-66
2023/04/24 02:00:51;;;;;;;0.83;0.50;;;;;18.70;98978.00;;;;2070085;28;20225;-66
2023/04/24 02:01:51;;;;;;;0.70;0.50;;;;;18.60;98986.00;;;;2062324;28;20452;-66
2023/04/24 02:02:51;;;;;;;0.87;0.43;;;;;18.60;98968.00;;;;2069394;28;20189;-66
2023/04/24 02:03:52;;;;;;;0.80;0.60;;;;;18.70;98971.00;;;;2064953;28;20214;-66
2023/04/24 02:04:53;;;;;;;0.60;0.40;;;;;18.70;98968.00;;;;2065551;28;20240;-66
2023/04/24 02:05:53;;;;;;;1.10;0.60;;;;;18.70;98965.00;;;;2069750;28;20568;-66
2023/04/24 02:06:54;;;;;;;0.80;0.60;;;;;18.70;98975.00;;;;2061812;28;20206;-66
2023/04/24 02:07:54;;;;;;;0.80;0.50;;;;;18.60;98976.00;;;;2052459;28;20237;-66
2023/04/24 02:08:55;;;;;;;0.90;0.70;;;;;18.60;98992.00;;;;2054205;28;20245;-66
2023/04/24 02:09:55;;;;;;;0.80;0.60;;;;;18.70;98986.00;;;;2062281;28;20196;-66
2023/04/24 02:10:55;;;;;;;0.70;0.50;;;;;18.60;98979.00;;;;2062150;28;20195;-66
2023/04/24 02:11:56;;;;;;;1.00;0.50;;;;;18.60;98981.00;;;;2061470;28;20202;-66
2023/04/24 02:12:56;;;;;;;0.80;0.60;;;;;18.60;98983.00;;;;2062041;28;20268;-66
2023/04/24 02:13:56;;;;;;;0.80;0.60;;;;;18.60;98989.00;;;;2067956;28;20198;-66
2023/04/24 02:14:57;;;;;;;0.70;0.53;;;;;18.70;98987.00;;;;2053518;28;20187;-66
2023/04/24 02:16:00;;;;;;;0.80;0.60;;;;;18.70;98985.00;;;;2061350;28;20197;-66
2023/04/24 02:17:00;;;;;;;0.80;0.50;;;;;18.60;98981.00;;;;2063105;28;20191;-66
2023/04/24 02:18:00;;;;;;;0.70;0.50;;;;;18.60;98984.00;;;;2068461;28;20201;-66
2023/04/24 02:19:02;;;;;;;0.90;0.67;;;;;18.70;98984.00;;;;2061503;28;20170;-66
2023/04/24 02:20:02;;;;;;;0.90;0.50;;;;;18.70;98987.00;;;;2062475;28;20325;-66
2023/04/24 02:21:02;;;;;;;0.90;0.53;;;;;18.70;98986.00;;;;2068023;28;20271;-66
2023/04/24 02:22:03;;;;;;;0.73;0.60;;;;;18.60;98984.00;;;;2062181;28;20275;-66
2023/04/24 02:23:03;;;;;;;0.80;0.50;;;;;18.60;98990.00;;;;2062358;28;20210;-66
2023/04/24 02:24:03;;;;;;;1.20;0.50;;;;;18.60;98983.00;;;;2062830;28;20186;-66
2023/04/24 02:25:04;;;;;;;0.87;0.50;;;;;18.60;98984.00;;;;2064804;28;20182;-66
2023/04/24 02:26:05;;;;;;;0.60;0.50;;;;;18.70;98987.00;;;;2065548;28;20248;-66
2023/04/24 02:27:06;;;;;;;0.73;0.50;;;;;18.60;98981.00;;;;2070044;28;20287;-66
2023/04/24 02:28:06;;;;;;;1.60;1.00;;;;;18.60;98986.00;;;;2064899;28;20281;-66
2023/04/24 02:29:06;;;;;;;0.70;0.50;;;;;18.60;98984.00;;;;2062935;28;20191;-66
2023/04/24 02:30:08;;;;;;;0.70;0.53;;;;;18.60;98981.00;;;;2063626;28;20205;-66
2023/04/24 02:31:08;;;;;;;0.68;0.40;;;;;18.60;98984.00;;;;2062023;28;20211;-66
2023/04/24 02:32:11;;;;;;;0.70;0.50;;;;;18.60;98980.00;;;;2063204;28;20186;-66
2023/04/24 02:33:12;;;;;;;0.98;0.60;;;;;18.60;98984.00;;;;2063684;28;20174;-66
2023/04/24 02:34:12;;;;;;;1.13;0.60;;;;;18.60;98979.00;;;;2062749;28;20183;-66
2023/04/24 02:35:12;;;;;;;0.63;0.40;;;;;18.60;98987.00;;;;2061200;28;20187;-66
2023/04/24 02:36:13;;;;;;;0.80;0.53;;;;;18.60;98986.00;;;;2065837;28;20169;-66
2023/04/24 02:37:14;;;;;;;0.70;0.55;;;;;18.60;98984.00;;;;2069601;28;20177;-66
2023/04/24 02:38:14;;;;;;;0.80;0.70;;;;;18.60;98985.00;;;;2063217;28;20188;-66
2023/04/24 02:39:16;;;;;;;1.23;0.53;;;;;18.60;98982.00;;;;2067902;28;20174;-66
2023/04/24 02:40:16;;;;;;;0.90;0.70;;;;;18.60;98978.00;;;;2063596;28;20595;-66
2023/04/24 02:41:17;;;;;;;0.80;0.60;;;;;18.60;98984.00;;;;2064545;28;20279;-66
2023/04/24 02:42:17;;;;;;;0.80;0.60;;;;;18.60;98985.00;;;;2061275;28;20185;-66
2023/04/24 02:43:17;;;;;;;2.70;0.60;;;;;18.60;98982.00;;;;2064177;28;20206;-66
2023/04/24 02:44:17;;;;;;;1.07;0.67;;;;;18.60;98988.00;;;;2068164;28;20186;-66
2023/04/24 02:45:18;;;;;;;0.80;0.63;;;;;18.60;98985.00;;;;2061646;28;20213;-66
2023/04/24 02:46:18;;;;;;;0.83;0.60;;;;;18.60;98980.00;;;;2064248;28;20182;-66
2023/04/24 02:47:18;;;;;;;1.10;0.70;;;;;18.60;98993.00;;;;2064199;28;20205;-66
2023/04/24 02:48:20;;;;;;;0.80;0.50;;;;;18.60;98992.00;;;;2064210;28;20308;-66
2023/04/24 02:49:21;;;;;;;0.73;0.57;;;;;18.60;99000.00;;;;2062364;28;20237;-66
2023/04/24 02:50:21;;;;;;;1.00;0.90;;;;;18.60;98998.00;;;;2063201;28;20854;-66
2023/04/24 02:51:21;;;;;;;0.87;0.50;;;;;18.60;98990.00;;;;2064057;28;20208;-66
2023/04/24 02:52:21;;;;;;;0.70;0.50;;;;;18.60;98990.00;;;;2066005;28;20181;-66
2023/04/24 02:53:23;;;;;;;1.37;0.70;;;;;18.60;98994.00;;;;2069917;28;20182;-66
2023/04/24 02:54:23;;;;;;;1.00;0.70;;;;;18.60;98994.00;;;;2064381;28;20184;-66
2023/04/24 02:55:23;;;;;;;0.80;0.60;;;;;18.60;98998.00;;;;2069820;28;20668;-66
2023/04/24 02:56:24;;;;;;;0.80;0.50;;;;;18.60;98996.00;;;;2065855;28;20221;-66
2023/04/24 02:57:24;;;;;;;0.87;0.60;;;;;18.60;98997.00;;;;2064745;28;20192;-66
2023/04/24 02:58:24;;;;;;;1.60;0.60;;;;;18.60;99002.00;;;;2068217;28;20229;-66
2023/04/24 02:59:26;;;;;;;1.17;0.50;;;;;18.60;98999.00;;;;2061510;28;20217;-66
2023/04/24 03:00:27;;;;;;;0.90;0.68;;;;;18.60;99000.00;;;;2061901;28;20677;-66
2023/04/24 03:01:27;;;;;;;0.70;0.57;;;;;18.60;99001.00;;;;2061463;28;20217;-66
2023/04/24 03:02:27;;;;;;;1.13;0.80;;;;;18.60;99009.00;;;;2065250;28;20204;-66
2023/04/24 03:03:28;;;;;;;0.70;0.53;;;;;18.60;99001.00;;;;2066419;28;20214;-66
2023/04/24 03:04:28;;;;;;;0.80;0.60;;;;;18.60;99009.00;;;;2062857;28;20191;-66
2023/04/24 03:05:30;;;;;;;0.80;0.50;;;;;18.60;98963.00;;;;2065367;28;20181;-66
2023/04/24 03:06:32;;;;;;;0.73;0.50;;;;;18.60;99007.00;;;;2065985;28;20184;-66
2023/04/24 03:07:33;;;;;;;1.10;0.60;;;;;18.60;99013.00;;;;2065227;28;20208;-66
2023/04/24 03:08:33;;;;;;;0.80;0.60;;;;;18.60;99011.00;;;;2069326;28;20194;-66
2023/04/24 03:09:34;;;;;;;0.70;0.50;;;;;18.60;99009.00;;;;2064000;28;20209;-66
2023/04/24 03:10:34;;;;;;;0.70;0.50;;;;;18.60;99008.00;;;;2065993;28;20190;-66
2023/04/24 03:11:35;;;;;;;1.13;0.60;;;;;18.60;99013.00;;;;2065042;28;20186;-66
2023/04/24 03:12:35;;;;;;;1.00;0.70;;;;;18.60;99006.00;;;;2066118;28;20220;-66
2023/04/24 03:13:35;;;;;;;0.70;0.50;;;;;18.60;99011.00;;;;2068591;28;20235;-66
2023/04/24 03:14:36;;;;;;;0.93;0.60;;;;;18.60;99011.00;;;;2061496;28;20185;-66
2023/04/24 03:15:36;;;;;;;0.80;0.63;;;;;18.60;99012.00;;;;2066293;28;20180;-66
2023/04/24 03:16:36;;;;;;;0.80;0.63;;;;;18.60;99016.00;;;;2063836;28;20186;-66
2023/04/24 03:17:37;;;;;;;1.77;0.70;;;;;18.60;99012.00;;;;2066196;28;20216;-66
2023/04/24 03:18:37;;;;;;;1.97;1.30;;;;;18.60;99014.00;;;;2062352;28;20182;-66
2023/04/24 03:19:38;;;;;;;1.00;0.60;;;;;18.60;99010.00;;;;2064461;28;20182;-66
2023/04/24 03:20:39;;;;;;;0.80;0.57;;;;;18.60;99008.00;;;;2066337;28;20641;-66
2023/04/24 03:21:40;;;;;;;1.47;0.80;;;;;18.60;99009.00;;;;2066410;28;20185;-66
2023/04/24 03:22:40;;;;;;;0.70;0.60;;;;;18.60;99018.00;;;;2069368;28;20179;-66
2023/04/24 03:23:41;;;;;;;0.83;0.60;;;;;18.60;99003.00;;;;2061309;28;20202;-66
2023/04/24 03:24:41;;;;;;;0.70;0.60;;;;;18.60;99013.00;;;;2061624;28;20672;-66
2023/04/24 03:25:42;;;;;;;1.03;0.63;;;;;18.60;99007.00;;;;2063450;28;20181;-66
2023/04/24 03:26:43;;;;;;;0.73;0.60;;;;;18.60;99009.00;;;;2058320;28;20218;-66
2023/04/24 03:27:43;;;;;;;0.90;0.77;;;;;18.60;99009.00;;;;2058904;28;20209;-66
2023/04/24 03:28:43;;;;;;;0.80;0.60;;;;;18.60;99010.00;;;;2061571;28;20237;-66
2023/04/24 03:29:43;;;;;;;1.10;0.93;;;;;18.60;99017.00;;;;2062046;28;20186;-66
2023/04/24 03:30:44;;;;;;;3.93;0.70;;;;;18.60;99012.00;;;;2061960;28;20228;-66
2023/04/24 03:31:44;;;;;;;0.90;0.77;;;;;18.60;99016.00;;;;2067257;28;20200;-66
2023/04/24 03:32:45;;;;;;;0.90;0.67;;;;;18.60;99016.00;;;;2063572;28;20244;-66
2023/04/24 03:33:45;;;;;;;0.70;0.60;;;;;18.60;98997.00;;;;2061569;28;20253;-66
2023/04/24 03:34:45;;;;;;;0.90;0.60;;;;;18.60;99025.00;;;;2058002;28;20224;-66
2023/04/24 03:35:46;;;;;;;1.27;0.83;;;;;18.60;99021.00;;;;2056726;28;20189;-66
2023/04/24 03:36:47;;;;;;;0.70;0.50;;;;;18.60;99025.00;;;;2067314;28;20243;-66
2023/04/24 03:37:47;;;;;;;1.17;0.70;;;;;18.60;99018.00;;;;2063506;28;20205;-66
2023/04/24 03:38:48;;;;;;;0.80;0.70;;;;;18.60;99026.00;;;;2067728;28;20189;-66
2023/04/24 03:39:48;;;;;;;0.83;0.60;;;;;18.60;99017.00;;;;2063689;28;20729;-66
2023/04/24 03:40:48;;;;;;;1.33;0.70;;;;;18.60;99022.00;;;;2061523;28;20740;-66
2023/04/24 03:41:49;;;;;;;1.00;0.70;;;;;18.60;99015.00;;;;2061487;28;20191;-66
2023/04/24 03:42:49;;;;;;;1.00;0.77;;;;;18.60;99022.00;;;;2061437;28;20182;-66
2023/04/24 03:43:49;;;;;;;0.70;0.57;;;;;18.60;99021.00;;;;2066746;28;20189;-65
2023/04/24 03:44:50;;;;;;;1.00;0.80;;;;;18.60;99025.00;;;;2061402;28;20186;-66
2023/04/24 03:45:50;;;;;;;1.03;0.80;;;;;18.60;99021.00;;;;2063723;28;20183;-66
2023/04/24 03:46:50;;;;;;;1.33;0.70;;;;;18.60;99023.00;;;;2061113;28;20185;-66
2023/04/24 03:47:51;;;;;;;1.10;0.90;;;;;18.60;99024.00;;;;2067511;28;20606;-66
2023/04/24 03:48:51;;;;;;;1.03;0.83;;;;;18.60;99022.00;;;;2065020;28;20559;-66
2023/04/24 03:49:52;;;;;;;0.80;0.60;;;;;18.60;99017.00;;;;2060678;28;20801;-66
2023/04/24 03:50:52;;;;;;;0.83;0.67;;;;;18.60;99019.00;;;;2056920;28;20219;-66
2023/04/24 03:51:52;;;;;;;1.80;0.80;;;;;18.60;99014.00;;;;2063266;28;20728;-66
2023/04/24 03:52:53;;;;;;;1.10;0.87;;;;;18.60;99017.00;;;;2069531;28;20190;-66
2023/04/24 03:53:53;;;;;;;1.63;1.00;;;;;18.60;99017.00;;;;2064120;28;20190;-66
2023/04/24 03:54:53;;;;;;;1.40;0.70;;;;;18.60;99019.00;;;;2069611;28;20227;-66
2023/04/24 03:55:54;;;;;;;1.10;0.87;;;;;18.60;99023.00;;;;2069447;28;20222;-66
2023/04/24 03:56:55;;;;;;;1.30;0.80;;;;;18.60;99017.00;;;;2067905;28;20699;-66
2023/04/24 03:57:55;;;;;;;1.10;0.80;;;;;18.60;99017.00;;;;2069782;28;20455;-66
2023/04/24 03:58:55;;;;;;;0.93;0.70;;;;;18.60;99025.00;;;;2064218;28;20194;-66
2023/04/24 03:59:56;;;;;;;1.17;0.77;;;;;18.60;99017.00;;;;2069683;28;20200;-66
2023/04/24 04:00:58;;;;;;;1.00;0.70;;;;;18.60;99009.00;;;;2066477;28;20198;-66
2023/04/24 04:01:58;;;;;;;0.95;0.80;;;;;18.60;99019.00;;;;2063144;28;20182;-66
2023/04/24 04:02:58;;;;;;;0.93;0.77;;;;;18.60;99024.00;;;;2062969;28;20661;-66
2023/04/24 04:03:59;;;;;;;0.97;0.60;;;;;18.60;99011.00;;;;2063582;28;20212;-66
2023/04/24 04:04:59;;;;;;;1.00;0.73;;;;;18.60;99015.00;;;;2063211;28;20936;-66
2023/04/24 04:05:59;;;;;;;1.07;0.80;;;;;18.60;99000.00;;;;2070514;28;20220;-66
2023/04/24 04:07:02;;;;;;;0.80;0.70;;;;;18.60;99010.00;;;;2056767;28;20189;-66
2023/04/24 04:08:02;;;;;;;1.10;0.90;;;;;18.60;99010.00;;;;2061324;28;20336;-66
2023/04/24 04:09:03;;;;;;;1.10;0.90;;;;;18.60;99022.00;;;;2068724;28;20263;-66
2023/04/24 04:10:03;;;;;;;1.10;0.83;;;;;18.60;99011.00;;;;2067211;28;20198;-66
2023/04/24 04:11:04;;;;;;;1.03;0.70;;;;;18.60;99017.00;;;;2063197;28;20189;-66
2023/04/24 04:12:04;;;;;;;0.80;0.73;;;;;18.60;99013.00;;;;2063154;28;20186;-66
2023/04/24 04:13:06;;;;;;;1.10;1.00;;;;;18.60;99015.00;;;;2069396;28;20197;-66
2023/04/24 04:14:06;;;;;;;1.17;0.88;;;;;18.60;99016.00;;;;2063017;28;20197;-66
2023/04/24 04:15:07;;;;;;;0.90;0.70;;;;;18.60;99021.00;;;;2066340;28;20182;-66
2023/04/24 04:16:07;;;;;;;1.20;0.90;;;;;18.60;99014.00;;;;2059138;28;20199;-66
2023/04/24 04:17:07;;;;;;;1.20;0.93;;;;;18.60;99021.00;;;;2046124;28;20236;-66
2023/04/24 04:18:08;;;;;;;0.73;0.60;;;;;18.60;99028.00;;;;2054405;28;20209;-66
2023/04/24 04:19:08;;;;;;;1.33;1.00;;;;;18.60;99023.00;;;;2064196;28;20182;-66
2023/04/24 04:20:09;;;;;;;0.90;0.70;;;;;18.60;99022.00;;;;2065424;28;20943;-67
2023/04/24 04:21:10;;;;;;;2.05;1.00;;;;;18.60;99028.00;;;;2066567;28;20213;-66
2023/04/24 04:22:10;;;;;;;1.10;0.90;;;;;18.60;99024.00;;;;2063412;28;20218;-66
2023/04/24 04:23:10;;;;;;;1.13;1.00;;;;;18.60;99018.00;;;;2066793;28;20226;-66
2023/04/24 04:24:11;;;;;;;1.10;1.00;;;;;18.60;99023.00;;;;2063285;28;20170;-66
2023/04/24 04:25:13;;;;;;;0.90;0.70;;;;;18.60;99025.00;;;;2063921;28;20182;-66
2023/04/24 04:26:13;;;;;;;0.90;0.65;;;;;18.60;99029.00;;;;2065268;28;20514;-66
2023/04/24 04:27:14;;;;;;;1.20;0.83;;;;;18.60;99029.00;;;;2070967;28;20192;-66
2023/04/24 04:28:15;;;;;;;1.67;1.00;;;;;18.60;99027.00;;;;2065264;28;20677;-66
2023/04/24 04:29:15;;;;;;;1.00;0.90;;;;;18.60;99026.00;;;;2069706;28;20201;-66
2023/04/24 04:30:15;;;;;;;1.00;0.90;;;;;18.60;99030.00;;;;2063226;28;20210;-65
2023/04/24 04:31:16;;;;;;;0.90;0.70;;;;;18.60;99023.00;;;;2060796;28;20190;-66
2023/04/24 04:32:16;;;;;;;1.07;0.77;;;;;18.60;99035.00;;;;2071056;28;20425;-65
2023/04/24 04:33:17;;;;;;;1.10;0.87;;;;;18.60;99024.00;;;;2062922;28;20181;-66
2023/04/24 04:34:18;;;;;;;1.00;0.90;;;;;18.60;99035.00;;;;2062657;28;20692;-66
2023/04/24 04:35:18;;;;;;;1.10;0.90;;;;;18.60;99033.00;;;;2063978;28;20217;-66
2023/04/24 04:36:18;;;;;;;0.93;0.80;;;;;18.60;99028.00;;;;2066689;28;20650;-66
2023/04/24 04:37:19;;;;;;;1.57;1.17;;;;;18.60;99025.00;;;;2069036;28;20201;-66
2023/04/24 04:38:19;;;;;;;1.00;0.90;;;;;18.60;99034.00;;;;2062515;28;20193;-66
2023/04/24 04:39:20;;;;;;;1.77;0.83;;;;;18.60;99031.00;;;;2064464;28;20635;-66
2023/04/24 04:40:20;;;;;;;1.07;0.80;;;;;18.60;99025.00;;;;2065805;28;20170;-66
2023/04/24 04:41:20;;;;;;;1.00;0.90;;;;;18.60;99031.00;;;;2065828;28;20174;-66
2023/04/24 04:42:21;;;;;;;0.90;0.73;;;;;18.60;99021.00;;;;2068555;28;20190;-66
2023/04/24 04:43:21;;;;;;;1.10;0.87;;;;;18.60;99029.00;;;;2068952;28;20266;-65
2023/04/24 04:44:21;;;;;;;1.30;0.93;;;;;18.60;99024.00;;;;2062957;28;20235;-66
2023/04/24 04:45:24;;;;;;;1.13;0.97;;;;;18.60;99031.00;;;;2064404;28;20195;-66
2023/04/24 04:46:25;;;;;;;1.00;0.90;;;;;18.60;99023.00;;;;2065071;28;20170;-66
2023/04/24 04:47:26;;;;;;;1.05;0.88;;;;;18.60;99029.00;;;;2065751;28;20186;-66
2023/04/24 04:48:27;;;;;;;1.63;1.20;;;;;18.60;99031.00;;;;2070566;28;20246;-66
2023/04/24 04:49:28;;;;;;;1.20;1.07;;;;;18.60;99029.00;;;;2064963;28;20271;-66
2023/04/24 04:50:28;;;;;;;1.00;0.90;;;;;18.60;99027.00;;;;2068116;28;20440;-66
2023/04/24 04:51:29;;;;;;;1.20;0.93;;;;;18.60;99036.00;;;;2063373;28;20547;-66
2023/04/24 04:52:29;;;;;;;1.10;0.87;;;;;18.60;99036.00;;;;2062382;28;20198;-66
2023/04/24 04:53:30;;;;;;;1.40;1.10;;;;;18.60;99033.00;;;;2065354;28;20276;-66
2023/04/24 04:54:30;;;;;;;1.20;1.10;;;;;18.60;99040.00;;;;2064944;28;20214;-66
2023/04/24 04:55:31;;;;;;;1.30;1.10;;;;;18.60;99047.00;;;;2070447;28;20177;-66
2023/04/24 04:56:31;;;;;;;1.20;0.90;;;;;18.60;99042.00;;;;2065434;28;20211;-66
2023/04/24 04:57:31;;;;;;;1.07;0.90;;;;;18.60;99039.00;;;;2062489;28;20202;-66
2023/04/24 04:58:32;;;;;;;1.27;0.90;;;;;18.60;99032.00;;;;2062048;28;20248;-66
2023/04/24 04:59:32;;;;;;;1.37;1.27;;;;;18.60;99039.00;;;;2064289;28;20355;-66
2023/04/24 05:00:35;;;;;;;1.57;0.97;;;;;18.60;99031.00;;;;2067735;28;20216;-66
2023/04/24 05:01:36;;;;;;;1.27;0.90;;;;;18.60;99028.00;;;;2063225;28;20785;-66
2023/04/24 05:02:36;;;;;;;1.00;0.90;;;;;18.60;99035.00;;;;2062505;28;20222;-66
2023/04/24 05:03:37;;;;;;;1.67;1.07;;;;;18.60;99040.00;;;;2062675;28;20456;-66